WXForecasting.com
 MARQUETTE COUNTY, MI  -  Special Weather Statement Special Weather Statement  
Harvey, MI - Weather Station Data
 
Daily Summary for November 22, 2014 Units:  English    Metric   Both
« Previous Day
Next Day »
Daily Weekly Monthly Yearly Custom
  Current: High: Low: Average:
Temperature: 34.6 °F 42.0 °F 27.7 °F 34.2 °F
Dew Point: 30.0 °F 33.0 °F 16.0 °F 26.5 °F
Humidity: 83% 83% 60% 73%
Wind Speed: 0.0mph 16.0mph 0.0mph 3.5mph
Wind Gust: 0.0mph 23.0mph - -
WindCalm - - South
Pressure: 29.69 in 29.83 in 29.66 in -
Precipitation: 0.05 in      
Historical Graphs
 
 
Tabular Data for November 22, 2014
Time Temp Dew Point Pressure Wind Wind Speed Wind Gust RH Rain Rate/Hour
00:02 27.7 °F 16.0 °F 29.82 in South 12.0 mph 21.0 mph 61% 0.00 in
00:17 27.9 °F 16.0 °F 29.83 in SSW 9.0 mph 18.0 mph 60% 0.00 in
00:32 28.0 °F 16.0 °F 29.82 in South 7.0 mph 23.0 mph 60% 0.00 in
00:47 28.2 °F 16.0 °F 29.81 in SE 8.0 mph 19.0 mph 61% 0.00 in
01:02 28.2 °F 16.0 °F 29.80 in SSW 5.0 mph 20.0 mph 61% 0.00 in
01:17 28.3 °F 16.0 °F 29.80 in South 16.0 mph 19.0 mph 61% 0.00 in
01:32 28.5 °F 17.0 °F 29.80 in South 7.0 mph 20.0 mph 62% 0.00 in
01:47 28.8 °F 18.0 °F 29.80 in WSW 4.0 mph 19.0 mph 63% 0.00 in
02:02 29.0 °F 18.0 °F 29.80 in SSE 9.0 mph 16.0 mph 64% 0.00 in
02:17 29.1 °F 19.0 °F 29.80 in SSE 6.0 mph 15.0 mph 65% 0.00 in
02:32 29.3 °F 19.0 °F 29.80 in SW 6.0 mph 14.0 mph 65% 0.00 in
02:47 29.4 °F 19.0 °F 29.80 in SSE 9.0 mph 16.0 mph 66% 0.00 in
03:02 29.5 °F 20.0 °F 29.79 in South 10.0 mph 14.0 mph 67% 0.00 in
03:17 29.6 °F 20.0 °F 29.78 in SSE 7.0 mph 12.0 mph 67% 0.00 in
03:32 29.7 °F 20.0 °F 29.77 in South 7.0 mph 12.0 mph 68% 0.00 in
03:47 29.9 °F 21.0 °F 29.77 in South 6.0 mph 13.0 mph 69% 0.00 in
04:02 30.1 °F 21.0 °F 29.76 in SSE 6.0 mph 18.0 mph 70% 0.00 in
04:17 30.2 °F 22.0 °F 29.76 in WSW 3.0 mph 17.0 mph 70% 0.00 in
04:32 30.4 °F 22.0 °F 29.76 in SW 3.0 mph 10.0 mph 71% 0.00 in
04:47 30.6 °F 22.0 °F 29.76 in SW 3.0 mph 10.0 mph 71% 0.00 in
05:02 30.6 °F 23.0 °F 29.77 in SSE 3.0 mph 8.0 mph 72% 0.00 in
05:17 30.7 °F 23.0 °F 29.76 in SSW 3.0 mph 14.0 mph 73% 0.00 in
05:32 30.8 °F 23.0 °F 29.76 in SSW 3.0 mph 6.0 mph 74% 0.00 in
05:47 30.9 °F 24.0 °F 29.76 in SSW 4.0 mph 9.0 mph 74% 0.00 in
06:02 31.2 °F 24.0 °F 29.76 in South 3.0 mph 7.0 mph 75% 0.00 in
06:17 31.4 °F 24.0 °F 29.76 in South 3.0 mph 8.0 mph 75% 0.00 in
06:32 31.4 °F 25.0 °F 29.76 in South 1.0 mph 5.0 mph 76% 0.00 in
06:47 31.5 °F 25.0 °F 29.75 in South 5.0 mph 8.0 mph 76% 0.00 in
07:02 31.7 °F 25.0 °F 29.75 in SSW 3.0 mph 7.0 mph 77% 0.00 in
07:17 31.9 °F 26.0 °F 29.74 in South 3.0 mph 11.0 mph 78% 0.00 in
07:33 32.1 °F 26.0 °F 29.73 in South 2.0 mph 10.0 mph 78% 0.00 in
07:48 32.3 °F 26.0 °F 29.73 in South 4.0 mph 10.0 mph 79% 0.00 in
08:03 32.7 °F 27.0 °F 29.73 in South 3.0 mph 11.0 mph 79% 0.00 in
08:18 33.0 °F 27.0 °F 29.72 in SSE 7.0 mph 11.0 mph 79% 0.00 in
08:33 33.2 °F 27.0 °F 29.74 in SSE 1.0 mph 5.0 mph 79% 0.00 in
08:48 33.3 °F 27.0 °F 29.74 in SSE 3.0 mph 7.0 mph 79% 0.00 in
09:03 33.4 °F 28.0 °F 29.73 in Calm   4.0 mph 80% 0.00 in
09:18 33.5 °F 28.0 °F 29.74 in South 2.0 mph 4.0 mph 80% 0.00 in
09:33 33.6 °F 28.0 °F 29.73 in SSW 1.0 mph 6.0 mph 81% 0.00 in
09:48 33.8 °F 28.0 °F 29.73 in Calm   6.0 mph 80% 0.00 in
10:03 34.2 °F 29.0 °F 29.73 in South 1.0 mph 4.0 mph 80% 0.00 in
10:18 34.8 °F 29.0 °F 29.73 in South 1.0 mph 5.0 mph 80% 0.00 in
10:33 35.4 °F 30.0 °F 29.73 in SSE 5.0 mph 7.0 mph 80% 0.00 in
10:48 36.2 °F 30.0 °F 29.72 in SW 2.0 mph 6.0 mph 79% 0.00 in
11:03 36.8 °F 31.0 °F 29.71 in Calm   10.0 mph 78% 0.00 in
11:18 37.5 °F 31.0 °F 29.71 in SSW 4.0 mph 7.0 mph 77% 0.00 in
11:33 37.7 °F 31.0 °F 29.71 in SSW 3.0 mph 10.0 mph 77% 0.00 in
11:48 38.2 °F 31.0 °F 29.71 in Calm   7.0 mph 76% 0.00 in
12:03 38.8 °F 32.0 °F 29.70 in SW 2.0 mph 9.0 mph 75% 0.00 in
12:33 39.4 °F 32.0 °F 29.68 in South 2.0 mph 9.0 mph 74% 0.00 in
12:48 39.7 °F 32.0 °F 29.68 in WSW 2.0 mph 7.0 mph 74% 0.00 in
13:03 39.6 °F 32.0 °F 29.67 in South 2.0 mph 11.0 mph 74% 0.00 in
13:19 40.2 °F 32.0 °F 29.67 in SW 1.0 mph 4.0 mph 73% 0.00 in
13:34 41.2 °F 33.0 °F 29.66 in SSE 4.0 mph 7.0 mph 72% 0.00 in
13:49 41.6 °F 33.0 °F 29.66 in South 1.0 mph 9.0 mph 71% 0.00 in
14:04 41.5 °F 33.0 °F 29.66 in SSE 4.0 mph 7.0 mph 71% 0.00 in
14:19 42.0 °F 33.0 °F 29.66 in South 5.0 mph 11.0 mph 71% 0.00 in
14:34 41.8 °F 33.0 °F 29.66 in South 3.0 mph 7.0 mph 71% 0.00 in
14:49 41.3 °F 33.0 °F 29.66 in South 4.0 mph 8.0 mph 72% 0.01 in
15:04 40.9 °F 33.0 °F 29.67 in SSE 4.0 mph 10.0 mph 73% 0.01 in
15:19 40.6 °F 33.0 °F 29.67 in Calm   4.0 mph 73% 0.03 in
15:34 40.5 °F 32.0 °F 29.67 in South 3.0 mph 8.0 mph 73% 0.03 in
15:49 40.3 °F 33.0 °F 29.67 in Calm   9.0 mph 74% 0.02 in
16:04 39.7 °F 32.0 °F 29.68 in Calm   7.0 mph 74% 0.03 in
16:19 39.1 °F 32.0 °F 29.68 in Calm   3.0 mph 76% 0.02 in
16:34 38.6 °F 32.0 °F 29.68 in Calm   4.0 mph 77% 0.02 in
16:49 38.1 °F 32.0 °F 29.69 in Calm   5.0 mph 78% 0.02 in
17:04 37.9 °F 32.0 °F 29.69 in Calm   6.0 mph 78% 0.01 in
17:19 37.2 °F 31.0 °F 29.70 in South 2.0 mph 3.0 mph 79% 0.00 in
17:34 36.5 °F 31.0 °F 29.70 in Calm   2.0 mph 80% 0.00 in
17:49 36.0 °F 31.0 °F 29.69 in Calm   3.0 mph 82% 0.00 in
18:04 35.4 °F 30.0 °F 29.69 in Calm   2.0 mph 82% 0.00 in
18:19 34.6 °F 30.0 °F 29.69 in Calm     83% 0.00 in
Compliments of Weather Underground

4 Visitors online right now
Max visitors today: 17 at 04:19 pm EST
This month: 28 at 11-13-2014 10:32 pm EST
This year: 33 at 09-23-2014 08:38 pm EDT
All time: 104 at 01-04-2012 03:34 am EST
See Who is Online